Ischua, New York
Current Conditions -  °F | °C
As of 11:35 AM on Thursday 23 Oct 2014 (Local Time) from KOLE Reporting Station
Clear Clear  
Wind Chill: 41°   Ceiling: Unl
Heat Index: 46°   Visibility: 10mi
Dew Point: 43°   Wind: 10mph
Humidity: 87%   Direction: 350°N
Pressure: 30.06"   Gusts: 18mph
Location:  42.1993°N, 78.412°W
Report Text: KOLE 231535Z AUTO 35009G16KT 10SM CLR 08/06 A3006 RMK AO2
Loading
Personal Weather Stations






























Interactive Weather Map
Tropical Storm Tracking
New forecast layout! Learn more

10-Day Weather Forecast

Advertisements
Track Severe Weather on mobile